Time;durP1;ratioP1;P1;durP2;ratioP2;P2;SDS_P1;SDS_P2;PMS_P1;PMS_P2;Temp;Humidity;BMP_temperature;BMP_pressure;BME280_temperature;BME280_humidity;BME280_pressure;Samples;Min_cycle;Max_cycle;Signal;HPM_P1;HPM_P2
2021/03/06 00:00:09;;;;;;;1.57;0.20;;;1.90;99.90;;;;;;5040623;28;20206;-61
2021/03/06 00:02:35;;;;;;;1.50;0.20;;;1.90;99.90;;;;;;5046853;28;20181;-61
2021/03/06 00:05:01;;;;;;;1.50;0.20;;;1.90;99.90;;;;;;5055124;28;20551;-60
2021/03/06 00:07:27;;;;;;;1.50;0.20;;;1.90;99.90;;;;;;5050864;28;20447;-60
2021/03/06 00:09:52;;;;;;;1.60;0.40;;;1.90;99.90;;;;;;5055331;28;20443;-61
2021/03/06 00:12:18;;;;;;;1.50;0.20;;;1.80;99.90;;;;;;5055152;28;20713;-61
2021/03/06 00:14:44;;;;;;;1.50;0.20;;;1.80;99.90;;;;;;5039430;28;20242;-61
2021/03/06 00:17:09;;;;;;;1.53;0.20;;;1.70;99.90;;;;;;5048134;28;20584;-61
2021/03/06 00:19:35;;;;;;;1.50;0.20;;;1.70;99.90;;;;;;5044130;28;20189;-60
2021/03/06 00:22:01;;;;;;;1.50;0.20;;;1.70;99.90;;;;;;5052659;28;20207;-60
2021/03/06 00:24:28;;;;;;;1.50;0.20;;;1.80;99.90;;;;;;5063693;28;20182;-60
2021/03/06 00:26:54;;;;;;;1.52;0.20;;;1.70;99.90;;;;;;5065922;28;20184;-60
2021/03/06 00:29:20;;;;;;;1.52;0.20;;;1.60;99.90;;;;;;5046720;28;20186;-60
2021/03/06 00:31:46;;;;;;;1.60;0.30;;;1.60;99.90;;;;;;5048450;28;20695;-60
2021/03/06 00:34:11;;;;;;;1.50;0.20;;;1.60;99.90;;;;;;5052475;28;20189;-61
2021/03/06 00:36:37;;;;;;;1.53;0.20;;;1.60;99.90;;;;;;5052562;28;20173;-60
2021/03/06 00:39:05;;;;;;;1.57;0.20;;;1.50;99.90;;;;;;5040344;28;20280;-60
2021/03/06 00:41:31;;;;;;;1.52;0.20;;;1.50;99.90;;;;;;5048386;28;20229;-61
2021/03/06 00:43:57;;;;;;;6.30;3.38;;;1.50;99.90;;;;;;5054436;28;20285;-60
2021/03/06 00:46:23;;;;;;;1.50;0.20;;;1.50;99.90;;;;;;5044588;28;20529;-61
2021/03/06 00:48:49;;;;;;;5.07;4.57;;;1.50;99.90;;;;;;5030509;28;20436;-61
2021/03/06 00:51:15;;;;;;;1.52;0.20;;;1.50;99.90;;;;;;5049064;28;20342;-61
2021/03/06 00:53:41;;;;;;;1.70;0.50;;;1.50;99.90;;;;;;5040857;28;20266;-61
2021/03/06 00:56:06;;;;;;;1.50;0.20;;;1.50;99.90;;;;;;5047630;28;20427;-60
2021/03/06 00:58:32;;;;;;;1.50;0.20;;;1.60;99.90;;;;;;5049750;28;20232;-61
2021/03/06 01:00:58;;;;;;;1.57;0.30;;;1.50;99.90;;;;;;5045685;28;20205;-60
2021/03/06 01:03:24;;;;;;;1.60;0.60;;;1.50;99.90;;;;;;5032209;28;20230;-61
2021/03/06 01:05:50;;;;;;;1.50;0.20;;;1.50;99.90;;;;;;5048375;28;20185;-61
2021/03/06 01:08:15;;;;;;;1.50;0.20;;;1.50;99.90;;;;;;5035829;28;20536;-61
2021/03/06 01:10:44;;;;;;;1.50;0.20;;;1.50;99.90;;;;;;5047306;28;20202;-61
2021/03/06 01:13:10;;;;;;;1.50;0.20;;;1.50;99.90;;;;;;5046343;28;20818;-60
2021/03/06 01:15:37;;;;;;;1.52;0.20;;;1.60;99.90;;;;;;5047861;28;20194;-61
2021/03/06 01:18:04;;;;;;;1.50;0.20;;;1.60;99.90;;;;;;5032190;28;20188;-61
2021/03/06 01:20:30;;;;;;;1.58;0.20;;;1.60;99.90;;;;;;5050727;28;20266;-60
2021/03/06 01:22:55;;;;;;;1.50;0.20;;;1.50;99.90;;;;;;5046572;28;20192;-60
2021/03/06 01:25:21;;;;;;;1.50;0.20;;;1.40;99.90;;;;;;5052911;28;20535;-61
2021/03/06 01:27:47;;;;;;;1.50;0.20;;;1.40;99.90;;;;;;5050778;28;20181;-61
2021/03/06 01:30:12;;;;;;;1.50;0.20;;;1.40;99.90;;;;;;5045739;28;20464;-61
2021/03/06 01:32:38;;;;;;;1.60;0.30;;;1.50;99.90;;;;;;5054505;28;20236;-61
2021/03/06 01:35:09;;;;;;;1.70;0.50;;;1.50;99.90;;;;;;5057324;28;20201;-61
2021/03/06 01:37:35;;;;;;;1.55;0.20;;;1.50;99.90;;;;;;5044268;28;22399;-61
2021/03/06 01:40:04;;;;;;;1.50;0.20;;;1.40;99.90;;;;;;5047588;28;20294;-61
2021/03/06 01:42:30;;;;;;;1.50;0.20;;;1.40;99.90;;;;;;5055081;28;20277;-61
2021/03/06 01:44:55;;;;;;;1.50;0.20;;;1.40;99.90;;;;;;5053211;28;20197;-62
2021/03/06 01:47:21;;;;;;;2.10;0.83;;;1.30;99.90;;;;;;5056421;28;20704;-61
2021/03/06 01:49:46;;;;;;;1.50;0.20;;;1.20;99.90;;;;;;5059125;28;20279;-60
2021/03/06 01:52:12;;;;;;;1.50;0.30;;;1.20;99.90;;;;;;5048429;28;20217;-61
2021/03/06 01:54:39;;;;;;;1.50;0.20;;;1.20;99.90;;;;;;5047636;28;20199;-61
2021/03/06 01:57:05;;;;;;;1.55;0.20;;;1.20;99.90;;;;;;5051073;28;20211;-61
2021/03/06 01:59:31;;;;;;;1.50;0.30;;;1.20;99.90;;;;;;5050729;28;20216;-61
2021/03/06 02:01:57;;;;;;;1.53;0.20;;;1.10;99.90;;;;;;5062638;28;21902;-60
2021/03/06 02:04:22;;;;;;;1.50;0.20;;;1.10;99.90;;;;;;5041777;28;20185;-61
2021/03/06 02:06:48;;;;;;;1.53;0.20;;;1.10;99.90;;;;;;5074877;28;20177;-62
2021/03/06 02:09:13;;;;;;;1.60;0.43;;;1.10;99.90;;;;;;5083075;28;20174;-62
2021/03/06 02:12:18;;;;;;;1.50;0.20;;;1.10;99.90;;;;;;5047599;28;20728;-60
2021/03/06 02:15:09;;;;;;;1.52;0.20;;;1.00;99.90;;;;;;5049823;28;20231;-60
2021/03/06 02:18:08;;;;;;;1.50;0.20;;;1.00;99.90;;;;;;5078511;28;20182;-61
2021/03/06 02:21:12;;;;;;;1.60;0.52;;;1.10;99.90;;;;;;5060215;28;20224;-61
2021/03/06 02:24:11;;;;;;;1.58;0.20;;;1.10;99.90;;;;;;5030420;28;20193;-60
2021/03/06 02:27:14;;;;;;;1.55;0.20;;;1.00;99.90;;;;;;5045599;28;20677;-62
2021/03/06 02:29:56;;;;;;;1.60;0.30;;;1.10;99.90;;;;;;5047696;28;20185;-61
2021/03/06 02:32:34;;;;;;;1.60;0.30;;;1.10;99.90;;;;;;5059400;28;20209;-61
2021/03/06 02:35:08;;;;;;;1.50;0.20;;;1.10;99.90;;;;;;5045944;28;20177;-60
2021/03/06 02:37:39;;;;;;;1.58;0.20;;;1.10;99.90;;;;;;5050885;28;20548;-60
2021/03/06 02:40:07;;;;;;;1.52;0.20;;;1.00;99.90;;;;;;5049104;28;20204;-61
2021/03/06 02:42:34;;;;;;;1.58;0.20;;;1.10;99.90;;;;;;5056702;28;20230;-60
2021/03/06 02:44:59;;;;;;;10.30;2.75;;;1.10;99.90;;;;;;5045221;28;20182;-61
2021/03/06 02:47:27;;;;;;;1.57;0.20;;;1.10;99.90;;;;;;5057506;28;20228;-61
2021/03/06 02:49:54;;;;;;;1.52;0.20;;;1.00;99.90;;;;;;5057965;28;20224;-60
2021/03/06 02:52:20;;;;;;;1.58;0.28;;;1.00;99.90;;;;;;5033832;28;20208;-60
2021/03/06 02:54:46;;;;;;;1.57;0.20;;;1.10;99.90;;;;;;5062163;28;20188;-60
2021/03/06 02:57:38;;;;;;;1.55;0.20;;;1.10;99.90;;;;;;5048821;28;20451;-61
2021/03/06 03:00:13;;;;;;;1.50;0.20;;;1.10;99.90;;;;;;5002202;28;20220;-61
2021/03/06 03:03:11;;;;;;;1.58;0.20;;;1.10;99.90;;;;;;5058114;28;20648;-61
2021/03/06 03:05:45;;;;;;;1.50;0.20;;;1.10;99.90;;;;;;5063546;28;20184;-61
2021/03/06 03:08:22;;;;;;;1.58;0.25;;;0.90;99.90;;;;;;5048083;28;20182;-61
2021/03/06 03:10:54;;;;;;;1.55;0.20;;;0.90;99.90;;;;;;5053227;28;20220;-61
2021/03/06 03:13:23;;;;;;;1.58;0.20;;;0.90;99.90;;;;;;5045916;28;20187;-61
2021/03/06 03:16:02;;;;;;;1.58;0.20;;;0.90;99.90;;;;;;5038456;28;20185;-61
2021/03/06 03:18:31;;;;;;;1.58;0.20;;;0.90;99.90;;;;;;5029217;28;20196;-61
2021/03/06 03:21:03;;;;;;;1.50;0.20;;;0.80;99.90;;;;;;5061739;28;20209;-60
2021/03/06 03:23:49;;;;;;;1.52;0.20;;;0.70;99.90;;;;;;5047540;28;20192;-61
2021/03/06 03:26:16;;;;;;;1.60;0.40;;;0.60;99.90;;;;;;5048805;28;20263;-61
2021/03/06 03:28:46;;;;;;;1.70;0.30;;;0.60;99.90;;;;;;5050030;28;20183;-60
2021/03/06 03:31:12;;;;;;;1.55;0.20;;;0.70;99.90;;;;;;5040276;28;20224;-61
2021/03/06 03:33:41;;;;;;;1.58;0.20;;;0.70;99.90;;;;;;5046493;28;20269;-62
2021/03/06 03:36:07;;;;;;;1.58;0.20;;;0.80;99.90;;;;;;5060231;28;20200;-61
2021/03/06 03:38:34;;;;;;;1.50;0.20;;;0.70;99.90;;;;;;5055473;28;20576;-60
2021/03/06 03:41:01;;;;;;;1.58;0.20;;;0.70;99.90;;;;;;5040326;28;20217;-60
2021/03/06 03:43:27;;;;;;;1.50;0.20;;;0.70;99.90;;;;;;5054121;28;20236;-61
2021/03/06 03:45:53;;;;;;;1.50;0.20;;;0.70;99.90;;;;;;5042097;28;20187;-61
2021/03/06 03:48:20;;;;;;;1.55;0.20;;;0.70;99.90;;;;;;5045705;28;20177;-61
2021/03/06 03:50:46;;;;;;;1.50;0.20;;;0.60;99.90;;;;;;5058730;28;20627;-61
2021/03/06 03:53:13;;;;;;;1.57;0.20;;;0.50;99.90;;;;;;5053549;28;20188;-61
2021/03/06 03:55:40;;;;;;;1.58;0.20;;;0.60;99.90;;;;;;5065912;28;20408;-62
2021/03/06 03:58:07;;;;;;;2.42;1.50;;;0.50;99.90;;;;;;5108829;22;20774;-58
2021/03/06 04:00:33;;;;;;;1.58;0.20;;;0.50;99.90;;;;;;5109696;27;20336;-57
2021/03/06 04:03:04;;;;;;;1.50;0.20;;;0.50;99.90;;;;;;5118089;27;20206;-57
2021/03/06 04:05:30;;;;;;;1.58;0.20;;;0.50;99.90;;;;;;5113265;27;20557;-57
2021/03/06 04:07:56;;;;;;;1.50;0.20;;;0.40;99.90;;;;;;5110530;27;20198;-57
2021/03/06 04:10:23;;;;;;;1.53;0.20;;;0.30;99.90;;;;;;5105222;27;20442;-57
2021/03/06 04:12:51;;;;;;;1.50;0.20;;;0.30;99.90;;;;;;5105629;27;20697;-57
2021/03/06 04:15:19;;;;;;;1.90;1.40;;;0.30;99.90;;;;;;5105732;27;20183;-57
2021/03/06 04:17:45;;;;;;;1.50;0.20;;;0.30;99.90;;;;;;5108903;27;20206;-57
2021/03/06 04:20:13;;;;;;;1.55;0.20;;;0.30;99.90;;;;;;5113514;27;20206;-57
2021/03/06 04:22:38;;;;;;;1.50;0.20;;;0.30;99.90;;;;;;5115874;27;20656;-57
2021/03/06 04:25:05;;;;;;;1.57;0.20;;;0.30;99.90;;;;;;5104939;28;20254;-58
2021/03/06 04:27:31;;;;;;;1.58;0.20;;;0.20;99.90;;;;;;5116099;27;20720;-57
2021/03/06 04:29:57;;;;;;;1.60;0.30;;;0.30;99.90;;;;;;5126065;27;20275;-57
2021/03/06 04:32:22;;;;;;;1.57;0.20;;;0.20;99.90;;;;;;5120456;27;20499;-57
2021/03/06 04:34:48;;;;;;;1.50;0.20;;;0.20;99.90;;;;;;5114553;27;20197;-57
2021/03/06 04:37:13;;;;;;;1.53;0.20;;;0.10;99.90;;;;;;5115918;27;20210;-57
2021/03/06 04:39:39;;;;;;;1.97;1.60;;;0.10;99.90;;;;;;5112365;27;20678;-66
2021/03/06 04:42:05;;;;;;;1.60;0.30;;;0.10;99.90;;;;;;5112168;27;20178;-57
2021/03/06 04:44:31;;;;;;;1.50;0.20;;;0.10;99.90;;;;;;5112418;27;20255;-57
2021/03/06 04:46:57;;;;;;;1.50;0.20;;;0.10;99.90;;;;;;5108388;27;20222;-57
2021/03/06 04:49:22;;;;;;;1.53;0.20;;;0.10;99.90;;;;;;5100038;28;20658;-57
2021/03/06 04:51:48;;;;;;;41.10;37.90;;;0.10;99.90;;;;;;5111450;27;20807;-59
2021/03/06 04:54:14;;;;;;;1.50;0.20;;;0.00;99.90;;;;;;5108266;28;20186;-58
2021/03/06 04:56:39;;;;;;;1.50;0.20;;;0.00;99.90;;;;;;5105934;28;20437;-58
2021/03/06 04:59:04;;;;;;;1.50;0.20;;;0.00;99.90;;;;;;5118344;28;20193;-57
2021/03/06 05:01:30;;;;;;;1.57;0.20;;;-0.10;99.90;;;;;;5103641;28;20234;-57
2021/03/06 05:03:56;;;;;;;1.50;0.20;;;-0.10;99.90;;;;;;5110308;28;20204;-57
2021/03/06 05:06:21;;;;;;;1.57;0.20;;;-0.10;99.90;;;;;;5109665;28;20188;-57
2021/03/06 05:08:47;;;;;;;1.57;0.20;;;-0.10;99.90;;;;;;5106809;28;20226;-57
2021/03/06 05:11:12;;;;;;;1.57;0.37;;;-0.10;99.90;;;;;;5114948;28;20295;-57
2021/03/06 05:13:38;;;;;;;1.50;0.20;;;-0.10;99.90;;;;;;5113798;28;20176;-57
2021/03/06 05:16:04;;;;;;;2.00;1.30;;;-0.10;99.90;;;;;;5106647;27;20180;-57
2021/03/06 05:18:31;;;;;;;2.47;2.28;;;-0.10;99.90;;;;;;5112571;27;20226;-58
2021/03/06 05:20:57;;;;;;;1.70;0.40;;;-0.10;99.90;;;;;;5112469;27;20233;-57
2021/03/06 05:23:23;;;;;;;1.55;0.20;;;-0.10;99.90;;;;;;5104941;27;20270;-57
2021/03/06 05:25:48;;;;;;;1.70;0.93;;;-0.20;99.90;;;;;;5106926;27;20262;-57
2021/03/06 05:28:18;;;;;;;1.57;0.20;;;-0.20;99.90;;;;;;5101031;27;20207;-57
2021/03/06 05:30:44;;;;;;;1.52;0.20;;;-0.20;99.90;;;;;;5092886;27;20307;-57
2021/03/06 05:33:10;;;;;;;1.60;0.30;;;-0.20;99.90;;;;;;5117766;27;20211;-57
2021/03/06 05:35:35;;;;;;;1.60;0.30;;;-0.30;99.90;;;;;;5113728;27;20725;-57
2021/03/06 05:38:01;;;;;;;1.53;0.20;;;-0.30;99.90;;;;;;5110333;27;20203;-57
2021/03/06 05:40:30;;;;;;;1.53;0.20;;;-0.40;99.90;;;;;;5102354;27;20203;-57
2021/03/06 05:42:56;;;;;;;1.50;0.20;;;-0.40;99.90;;;;;;5102329;27;20199;-57
2021/03/06 05:45:21;;;;;;;1.50;0.20;;;-0.40;99.90;;;;;;5107916;27;20179;-58
2021/03/06 05:47:47;;;;;;;1.57;0.20;;;-0.40;99.90;;;;;;5121917;27;20487;-57
2021/03/06 05:50:13;;;;;;;1.50;0.20;;;-0.30;99.90;;;;;;5104689;27;20799;-57
2021/03/06 05:52:40;;;;;;;1.60;0.30;;;-0.40;99.90;;;;;;5114086;27;20176;-58
2021/03/06 05:55:10;;;;;;;1.55;0.20;;;-0.40;99.90;;;;;;5110762;27;20186;-57
2021/03/06 05:57:36;;;;;;;1.50;0.20;;;-0.50;99.90;;;;;;5105943;27;20214;-57
2021/03/06 06:00:03;;;;;;;1.53;0.20;;;-0.50;99.90;;;;;;5118573;27;20208;-58
2021/03/06 06:02:29;;;;;;;1.58;0.20;;;-0.40;99.90;;;;;;5127800;27;20187;-57
2021/03/06 06:04:54;;;;;;;1.60;0.40;;;-0.50;99.90;;;;;;5104908;27;20184;-57
2021/03/06 06:07:21;;;;;;;1.53;0.20;;;-0.50;99.90;;;;;;5111119;27;20191;-57
2021/03/06 06:09:47;;;;;;;1.58;0.20;;;-0.40;99.90;;;;;;5115014;27;20249;-57
2021/03/06 06:12:13;;;;;;;1.50;0.20;;;-0.40;99.90;;;;;;5104555;27;20669;-57
2021/03/06 06:14:39;;;;;;;1.60;0.30;;;-0.30;99.90;;;;;;5114162;27;20184;-57
2021/03/06 06:17:06;;;;;;;1.58;0.20;;;-0.30;99.90;;;;;;5101933;27;20485;-57
2021/03/06 06:19:36;;;;;;;1.50;0.20;;;-0.30;99.90;;;;;;5111315;27;20180;-57
2021/03/06 06:22:18;;;;;;;1.50;0.20;;;-0.30;99.90;;;;;;5120581;27;20202;-58
2021/03/06 06:24:46;;;;;;;1.58;0.20;;;-0.40;99.90;;;;;;5117634;27;20191;-57
2021/03/06 06:27:12;;;;;;;1.50;0.20;;;-0.50;99.90;;;;;;5111314;27;20200;-57
2021/03/06 06:29:43;;;;;;;1.55;0.20;;;-0.50;99.90;;;;;;5108512;27;20184;-57
2021/03/06 06:32:11;;;;;;;1.58;0.20;;;-0.60;99.90;;;;;;5113295;27;20667;-58
2021/03/06 06:34:38;;;;;;;1.50;0.20;;;-0.50;99.90;;;;;;5110950;27;20529;-58
2021/03/06 06:37:10;;;;;;;1.50;0.20;;;-0.60;99.90;;;;;;5123501;27;20204;-58
2021/03/06 06:39:36;;;;;;;1.50;0.20;;;-0.50;99.90;;;;;;5110249;27;20184;-58
2021/03/06 06:42:02;;;;;;;1.57;0.20;;;-0.60;99.90;;;;;;5112119;27;20190;-58
2021/03/06 06:44:30;;;;;;;1.50;0.20;;;-0.60;99.90;;;;;;5113029;27;20438;-58
2021/03/06 06:46:56;;;;;;;1.58;0.20;;;-0.60;99.90;;;;;;5107280;27;20200;-58
2021/03/06 06:49:23;;;;;;;1.50;0.20;;;-0.50;99.90;;;;;;5112897;27;20176;-58
2021/03/06 06:52:05;;;;;;;1.52;0.20;;;-0.50;99.90;;;;;;5116602;27;20289;-57
2021/03/06 06:54:33;;;;;;;3.20;2.90;;;-0.60;99.90;;;;;;5112668;27;20504;-57
2021/03/06 06:57:12;;;;;;;1.50;0.20;;;-0.60;99.90;;;;;;5109759;27;20204;-57
2021/03/06 06:59:38;;;;;;;1.80;0.88;;;-0.50;99.90;;;;;;5109680;27;20558;-57
2021/03/06 07:02:06;;;;;;;1.52;0.25;;;-0.40;99.90;;;;;;5101042;27;20182;-57
2021/03/06 07:04:53;;;;;;;1.50;0.20;;;-0.40;99.90;;;;;;5108946;27;20236;-57
2021/03/06 07:07:20;;;;;;;1.60;0.30;;;-0.40;99.90;;;;;;5111424;27;20206;-57
2021/03/06 07:10:00;;;;;;;1.50;0.20;;;-0.30;99.90;;;;;;5118859;27;20199;-57
2021/03/06 07:12:31;;;;;;;1.52;0.20;;;-0.20;99.90;;;;;;5112590;27;20184;-57
2021/03/06 07:14:57;;;;;;;1.50;0.20;;;-0.20;99.90;;;;;;5104947;27;20183;-57
2021/03/06 07:17:23;;;;;;;1.57;0.20;;;-0.10;99.90;;;;;;5109037;27;20561;-57
2021/03/06 07:19:48;;;;;;;1.52;0.20;;;-0.10;99.90;;;;;;5107855;27;20171;-57
2021/03/06 07:22:14;;;;;;;1.53;0.20;;;0.00;99.90;;;;;;5109579;27;20578;-57
2021/03/06 07:24:40;;;;;;;1.50;0.20;;;0.00;99.90;;;;;;5111157;27;20186;-57
2021/03/06 07:27:06;;;;;;;1.50;0.20;;;0.20;99.90;;;;;;5104767;27;20265;-57
2021/03/06 07:29:32;;;;;;;1.58;0.20;;;0.20;99.90;;;;;;5111394;27;20236;-57
2021/03/06 07:31:59;;;;;;;1.53;0.20;;;0.30;99.90;;;;;;5105854;27;20215;-58
2021/03/06 07:34:26;;;;;;;1.50;0.20;;;0.30;99.90;;;;;;5107541;27;20588;-58
2021/03/06 07:37:02;;;;;;;1.58;0.20;;;0.40;99.90;;;;;;5108612;27;20178;-58
2021/03/06 07:39:36;;;;;;;2.67;1.20;;;0.40;99.90;;;;;;5106042;27;20184;-58
2021/03/06 07:42:02;;;;;;;1.60;0.20;;;0.40;99.90;;;;;;5110476;27;20191;-58
2021/03/06 07:44:29;;;;;;;1.58;0.20;;;0.40;99.90;;;;;;5112526;27;20679;-58
2021/03/06 07:46:58;;;;;;;1.52;0.20;;;0.50;99.90;;;;;;5112984;27;20191;-58
2021/03/06 07:49:29;;;;;;;1.58;0.20;;;0.50;99.90;;;;;;5107361;28;20188;-58
2021/03/06 07:51:57;;;;;;;2.78;2.58;;;0.60;99.90;;;;;;5119894;27;20565;-58
2021/03/06 07:54:23;;;;;;;1.55;0.20;;;0.70;99.90;;;;;;5117126;27;20678;-59
2021/03/06 07:56:48;;;;;;;3.28;1.33;;;0.70;99.90;;;;;;5103039;27;20202;-57
2021/03/06 07:59:14;;;;;;;1.50;0.20;;;0.70;99.90;;;;;;5107555;27;20182;-58
2021/03/06 08:01:40;;;;;;;1.57;0.20;;;0.80;99.90;;;;;;5103063;27;20191;-58
2021/03/06 08:04:06;;;;;;;2.60;0.93;;;0.90;99.90;;;;;;5103507;27;20199;-57
2021/03/06 08:06:33;;;;;;;1.50;0.20;;;1.00;99.90;;;;;;5107821;27;20180;-59
2021/03/06 08:09:07;;;;;;;1.58;0.20;;;1.10;99.90;;;;;;5105192;27;20204;-59
2021/03/06 08:11:38;;;;;;;3.45;0.40;;;1.10;99.90;;;;;;5100109;27;20286;-59
2021/03/06 08:14:06;;;;;;;1.50;0.20;;;1.20;99.90;;;;;;5101932;28;20175;-58
2021/03/06 08:16:35;;;;;;;1.50;0.20;;;1.20;99.90;;;;;;5101459;27;20215;-57
2021/03/06 08:19:12;;;;;;;1.55;0.20;;;1.20;99.90;;;;;;5101856;28;20207;-58
2021/03/06 08:21:49;;;;;;;1.60;0.20;;;1.30;99.90;;;;;;5104197;27;20187;-58
2021/03/06 08:26:52;;;;;;;1.60;0.40;;;1.30;99.90;;;;;;5099130;28;20203;-58
2021/03/06 08:29:21;;;;;;;2.08;0.95;;;1.40;99.90;;;;;;5106190;28;20191;-59
2021/03/06 08:32:06;;;;;;;1.50;0.20;;;1.50;99.90;;;;;;5102789;28;20205;-58
2021/03/06 08:34:42;;;;;;;1.70;0.68;;;1.60;99.90;;;;;;5099098;27;20190;-58
2021/03/06 08:40:00;;;;;;;1.50;0.20;;;1.70;99.90;;;;;;5099069;27;20597;-58
2021/03/06 08:42:48;;;;;;;1.60;0.20;;;1.70;99.90;;;;;;5104797;28;20180;-58
2021/03/06 08:45:23;;;;;;;1.60;0.52;;;1.90;99.90;;;;;;5109159;28;20193;-58
2021/03/06 08:48:01;;;;;;;1.52;0.20;;;2.00;99.90;;;;;;5117652;27;20261;-58
2021/03/06 08:50:28;;;;;;;1.58;0.20;;;2.00;99.90;;;;;;5107122;28;20211;-58
2021/03/06 08:53:05;;;;;;;3.03;1.38;;;2.00;99.90;;;;;;5100215;28;20175;-58
2021/03/06 08:55:43;;;;;;;2.47;0.50;;;2.10;99.90;;;;;;5105974;28;20175;-58
2021/03/06 08:58:17;;;;;;;1.50;0.20;;;2.20;99.90;;;;;;5098400;28;20206;-58
2021/03/06 09:00:55;;;;;;;7.65;7.03;;;2.20;99.90;;;;;;5103450;28;20542;-58
2021/03/06 09:03:21;;;;;;;1.55;0.20;;;2.30;99.90;;;;;;5102860;28;20205;-58
2021/03/06 09:05:50;;;;;;;1.50;0.20;;;2.30;99.90;;;;;;5101131;28;20202;-58
2021/03/06 09:08:24;;;;;;;1.80;0.65;;;2.40;99.90;;;;;;5100034;28;20243;-58
2021/03/06 09:10:51;;;;;;;1.80;0.75;;;2.40;99.90;;;;;;5104739;28;20669;-58
2021/03/06 09:13:25;;;;;;;1.70;0.73;;;2.50;99.90;;;;;;5104807;28;20183;-58
2021/03/06 09:16:06;;;;;;;1.60;0.20;;;2.60;99.90;;;;;;5102468;28;20244;-58
2021/03/06 09:18:34;;;;;;;2.22;1.00;;;2.60;99.90;;;;;;5105187;28;20195;-58
2021/03/06 09:21:10;;;;;;;1.98;0.40;;;2.70;99.90;;;;;;5099847;28;20215;-58
2021/03/06 09:23:39;;;;;;;1.60;0.20;;;2.80;99.90;;;;;;5101852;28;20206;-58
2021/03/06 09:26:13;;;;;;;1.50;0.20;;;2.90;99.90;;;;;;5102494;28;20184;-58
2021/03/06 09:28:39;;;;;;;1.55;0.20;;;3.00;99.90;;;;;;5100691;28;20662;-58
2021/03/06 09:31:15;;;;;;;1.58;0.20;;;3.00;99.90;;;;;;5104119;28;20290;-59
2021/03/06 09:33:41;;;;;;;1.55;0.20;;;3.10;99.90;;;;;;5100569;28;20178;-58
2021/03/06 09:36:09;;;;;;;5.05;1.48;;;3.10;99.90;;;;;;5101075;28;20249;-58
2021/03/06 09:38:47;;;;;;;1.58;0.22;;;3.20;99.80;;;;;;5100511;28;20200;-58
2021/03/06 09:41:14;;;;;;;1.55;0.20;;;3.20;99.90;;;;;;5104572;28;20172;-58
2021/03/06 09:43:41;;;;;;;2.20;1.17;;;3.20;99.30;;;;;;5100524;28;20196;-58
2021/03/06 09:46:15;;;;;;;1.83;0.40;;;3.30;98.70;;;;;;5100430;28;20183;-58
2021/03/06 09:48:56;;;;;;;1.90;1.15;;;3.30;99.10;;;;;;5104182;28;20302;-58
2021/03/06 09:51:23;;;;;;;1.70;0.40;;;3.40;97.70;;;;;;5104119;28;20196;-58
2021/03/06 09:53:59;;;;;;;1.60;0.20;;;3.40;97.60;;;;;;5100352;28;20172;-58
2021/03/06 09:56:25;;;;;;;1.52;0.20;;;3.50;97.30;;;;;;5100551;28;20188;-60
2021/03/06 09:59:02;;;;;;;1.60;0.30;;;3.50;96.80;;;;;;5099999;28;20306;-58
2021/03/06 10:01:28;;;;;;;1.52;0.20;;;3.60;96.90;;;;;;5105749;27;20195;-58
2021/03/06 10:03:54;;;;;;;1.52;0.20;;;3.70;96.10;;;;;;5104402;28;20518;-58
2021/03/06 10:06:22;;;;;;;1.55;0.30;;;3.70;95.90;;;;;;5101743;27;20188;-58
2021/03/06 10:08:53;;;;;;;1.95;0.90;;;3.80;96.10;;;;;;5105951;27;20203;-58
2021/03/06 10:11:20;;;;;;;1.50;0.20;;;3.90;95.10;;;;;;5112069;27;20564;-58
2021/03/06 10:13:50;;;;;;;1.70;0.47;;;3.90;94.80;;;;;;5105672;27;20186;-58
2021/03/06 10:16:16;;;;;;;2.33;0.60;;;4.00;94.00;;;;;;5101367;27;20274;-58
2021/03/06 10:18:41;;;;;;;1.50;0.20;;;4.00;93.40;;;;;;5104754;27;20590;-58
2021/03/06 10:21:13;;;;;;;1.60;0.20;;;4.00;93.20;;;;;;5105610;27;20194;-58
2021/03/06 10:23:39;;;;;;;1.55;0.20;;;4.00;93.50;;;;;;5106532;27;20706;-59
2021/03/06 10:26:15;;;;;;;1.70;0.53;;;4.10;93.50;;;;;;5104551;27;20468;-60
2021/03/06 10:28:41;;;;;;;1.58;0.20;;;4.20;93.30;;;;;;5104290;27;20570;-60
2021/03/06 10:31:44;;;;;;;1.73;0.53;;;4.20;93.70;;;;;;5106612;27;20203;-58
2021/03/06 10:34:16;;;;;;;1.50;0.20;;;4.20;93.10;;;;;;5105114;27;20266;-58
2021/03/06 10:36:42;;;;;;;3.25;1.05;;;4.30;92.90;;;;;;5106012;27;20171;-59
2021/03/06 10:39:17;;;;;;;1.58;0.20;;;4.40;93.20;;;;;;5102214;27;20666;-58
2021/03/06 10:41:43;;;;;;;2.45;0.73;;;4.40;93.00;;;;;;5104029;28;20183;-58
2021/03/06 10:44:11;;;;;;;1.57;0.20;;;4.50;92.40;;;;;;5098733;27;20828;-58
2021/03/06 10:46:40;;;;;;;1.50;0.20;;;4.60;92.00;;;;;;5101718;27;20495;-58
2021/03/06 10:49:09;;;;;;;1.50;0.20;;;4.70;91.60;;;;;;5115831;27;20178;-58
2021/03/06 10:51:54;;;;;;;1.60;0.30;;;4.70;91.50;;;;;;5118522;27;20570;-58
2021/03/06 10:54:22;;;;;;;1.60;0.40;;;4.80;90.20;;;;;;5116641;27;20251;-58
2021/03/06 10:57:01;;;;;;;1.52;0.20;;;4.80;88.70;;;;;;5122524;27;20202;-58
2021/03/06 10:59:35;;;;;;;1.52;0.20;;;4.80;86.70;;;;;;5115135;27;20265;-58
2021/03/06 11:02:01;;;;;;;1.60;0.30;;;4.80;87.10;;;;;;5114870;27;20206;-58
2021/03/06 11:04:29;;;;;;;1.55;0.20;;;4.90;86.70;;;;;;5118751;27;20210;-58
2021/03/06 11:06:56;;;;;;;1.52;0.20;;;4.90;88.00;;;;;;5125500;27;20191;-58
2021/03/06 11:09:27;;;;;;;1.60;0.30;;;5.00;86.90;;;;;;5111551;27;20182;-58
2021/03/06 11:11:53;;;;;;;1.98;0.40;;;5.10;82.90;;;;;;5115977;27;20206;-58
2021/03/06 11:14:23;;;;;;;2.80;1.63;;;5.10;80.50;;;;;;5110154;27;20186;-58
2021/03/06 11:16:48;;;;;;;1.63;0.28;;;5.20;79.60;;;;;;5118098;27;20175;-58
2021/03/06 11:19:14;;;;;;;1.70;0.40;;;5.20;80.00;;;;;;5105668;27;20176;-59
2021/03/06 11:21:39;;;;;;;2.90;0.87;;;5.30;79.40;;;;;;5124148;27;20629;-58
2021/03/06 11:24:05;;;;;;;1.53;0.20;;;5.20;80.00;;;;;;5120023;27;20232;-58
2021/03/06 11:26:31;;;;;;;1.50;0.20;;;5.30;78.70;;;;;;5123697;27;20198;-58
2021/03/06 11:28:56;;;;;;;1.57;0.30;;;5.30;78.30;;;;;;5119153;27;20871;-58
2021/03/06 11:31:23;;;;;;;1.57;0.20;;;5.40;77.00;;;;;;5118982;27;20689;-58
2021/03/06 11:33:48;;;;;;;1.55;0.20;;;5.40;76.50;;;;;;5120059;27;20198;-58
2021/03/06 11:36:14;;;;;;;1.50;0.20;;;5.50;76.00;;;;;;5111598;27;20218;-59
2021/03/06 11:38:39;;;;;;;2.27;1.30;;;5.60;76.00;;;;;;5125864;27;20194;-58
2021/03/06 11:41:05;;;;;;;1.57;0.30;;;5.70;76.90;;;;;;5123194;27;20197;-58
2021/03/06 11:43:31;;;;;;;1.50;0.20;;;5.70;76.40;;;;;;5116113;27;20247;-58
2021/03/06 11:45:56;;;;;;;1.60;0.27;;;5.80;77.10;;;;;;5109947;27;20603;-58
2021/03/06 11:48:22;;;;;;;1.57;0.20;;;5.80;76.80;;;;;;5124318;27;20734;-58
2021/03/06 11:50:49;;;;;;;1.57;0.20;;;5.90;75.60;;;;;;5116937;27;20206;-58
2021/03/06 11:53:16;;;;;;;1.73;0.50;;;5.90;75.70;;;;;;5120622;27;20389;-58
2021/03/06 11:55:41;;;;;;;1.60;0.38;;;5.90;76.40;;;;;;5117450;27;20650;-58
2021/03/06 11:58:08;;;;;;;1.60;0.30;;;6.00;74.80;;;;;;5122555;27;20211;-59
2021/03/06 12:00:35;;;;;;;1.58;0.20;;;6.00;74.40;;;;;;5120157;28;20195;-59
2021/03/06 12:03:01;;;;;;;2.25;1.05;;;6.10;75.10;;;;;;5110952;27;20195;-58
2021/03/06 12:05:27;;;;;;;1.58;0.32;;;6.10;74.20;;;;;;5116397;27;20191;-58
2021/03/06 12:07:53;;;;;;;3.40;1.03;;;6.10;75.30;;;;;;5117090;27;20206;-59
2021/03/06 12:10:21;;;;;;;1.60;0.30;;;6.10;75.00;;;;;;5109493;27;20200;-59
2021/03/06 12:12:47;;;;;;;1.50;0.20;;;6.20;73.30;;;;;;5115405;27;20231;-56
2021/03/06 12:15:14;;;;;;;1.50;0.20;;;6.20;73.50;;;;;;5123761;27;20183;-57
2021/03/06 12:17:40;;;;;;;1.70;0.50;;;6.20;73.10;;;;;;5111075;27;20678;-57
2021/03/06 12:20:08;;;;;;;2.25;1.17;;;6.30;71.30;;;;;;5119388;27;20228;-58
2021/03/06 12:22:33;;;;;;;1.50;0.20;;;6.30;71.30;;;;;;5119440;27;20215;-57
2021/03/06 12:25:00;;;;;;;2.00;0.67;;;6.30;72.20;;;;;;5111394;27;20175;-57
2021/03/06 12:27:25;;;;;;;1.50;0.20;;;6.40;69.70;;;;;;5123795;27;20237;-57
2021/03/06 12:29:51;;;;;;;1.50;0.20;;;6.40;69.00;;;;;;5106707;27;20213;-57
2021/03/06 12:32:16;;;;;;;1.50;0.20;;;6.50;67.70;;;;;;5107254;27;20642;-57
2021/03/06 12:34:42;;;;;;;1.50;0.20;;;6.50;66.80;;;;;;5114784;27;20193;-57
2021/03/06 12:37:07;;;;;;;1.50;0.20;;;6.50;66.10;;;;;;5115682;27;20194;-57
2021/03/06 12:39:33;;;;;;;1.70;0.40;;;6.60;65.70;;;;;;5111205;27;20187;-57
2021/03/06 12:41:59;;;;;;;1.50;0.20;;;6.60;65.00;;;;;;5111288;27;20231;-58
2021/03/06 12:44:25;;;;;;;2.47;1.03;;;6.60;64.10;;;;;;5115325;27;20475;-57
2021/03/06 12:46:50;;;;;;;1.50;0.20;;;6.70;65.80;;;;;;5109478;27;20178;-57
2021/03/06 12:49:18;;;;;;;1.50;0.20;;;6.70;64.40;;;;;;5128623;28;20199;-57
2021/03/06 12:51:43;;;;;;;1.52;0.20;;;6.80;63.10;;;;;;5130216;27;20233;-58
2021/03/06 12:54:09;;;;;;;2.07;0.70;;;6.90;64.00;;;;;;5118995;27;20206;-58
2021/03/06 12:56:35;;;;;;;1.50;0.20;;;6.80;60.90;;;;;;5126027;28;20197;-59
2021/03/06 12:59:00;;;;;;;1.50;0.30;;;6.90;59.80;;;;;;5120475;28;20510;-58
2021/03/06 13:01:26;;;;;;;1.50;0.20;;;6.90;60.00;;;;;;5117871;28;20210;-58
2021/03/06 13:03:52;;;;;;;1.40;0.20;;;7.00;59.90;;;;;;5115479;28;20229;-58
2021/03/06 13:06:18;;;;;;;1.77;0.40;;;7.00;60.40;;;;;;5111056;28;20187;-58
2021/03/06 13:08:43;;;;;;;1.67;0.60;;;7.00;59.30;;;;;;5117535;28;20515;-58